Time;durP1;ratioP1;P1;durP2;ratioP2;P2;SDS_P1;SDS_P2;PMS_P1;PMS_P2;Temp;Humidity;BMP_temperature;BMP_pressure;BME280_temperature;BME280_humidity;BME280_pressure;Samples;Min_cycle;Max_cycle;Signal;HPM_P1;HPM_P2
2022/12/03 00:00:04;;;;;;;31.70;23.95;;;;;;;;;;5009195;28;20033;-74
2022/12/03 00:02:30;;;;;;;27.80;21.88;;;;;;;;;;5011811;28;20081;-77
2022/12/03 00:04:56;;;;;;;24.83;18.90;;;;;;;;;;5011702;28;20374;-77
2022/12/03 00:07:22;;;;;;;19.20;15.80;;;;;;;;;;4994473;28;20053;-73
2022/12/03 00:09:48;;;;;;;18.35;15.13;;;;;;;;;;5011858;28;20049;-77
2022/12/03 00:12:14;;;;;;;19.65;14.65;;;;;;;;;;5011839;28;20072;-77
2022/12/03 00:14:40;;;;;;;16.95;12.73;;;;;;;;;;5011904;28;20022;-77
2022/12/03 00:17:07;;;;;;;19.10;14.15;;;;;;;;;;5011651;28;20030;-74
2022/12/03 00:19:33;;;;;;;18.27;13.50;;;;;;;;;;5013879;28;20026;-75
2022/12/03 00:21:59;;;;;;;18.05;12.27;;;;;;;;;;5015421;28;20030;-75
2022/12/03 00:24:30;;;;;;;16.25;12.88;;;;;;;;;;5015628;28;20033;-76
2022/12/03 00:26:57;;;;;;;29.55;20.92;;;;;;;;;;4981450;28;20029;-77
2022/12/03 00:29:23;;;;;;;39.03;28.60;;;;;;;;;;5015512;28;20056;-75
2022/12/03 00:31:49;;;;;;;50.70;34.20;;;;;;;;;;5015580;28;20022;-76
2022/12/03 00:34:15;;;;;;;37.00;26.17;;;;;;;;;;5014990;28;20034;-76
2022/12/03 00:36:41;;;;;;;28.67;21.23;;;;;;;;;;5015339;28;20034;-74
2022/12/03 00:39:07;;;;;;;29.33;21.67;;;;;;;;;;5015062;28;20108;-75
2022/12/03 00:41:33;;;;;;;24.40;18.77;;;;;;;;;;5015284;28;20051;-76
2022/12/03 00:43:59;;;;;;;24.58;17.45;;;;;;;;;;5015061;28;20033;-76
2022/12/03 00:46:26;;;;;;;24.95;18.27;;;;;;;;;;5015048;28;20046;-75
2022/12/03 00:48:52;;;;;;;27.05;19.42;;;;;;;;;;5015134;28;20037;-77
2022/12/03 00:51:18;;;;;;;23.55;17.23;;;;;;;;;;5014890;28;20026;-76
2022/12/03 00:53:45;;;;;;;20.20;15.73;;;;;;;;;;5015084;28;20094;-76
2022/12/03 00:56:11;;;;;;;22.63;17.05;;;;;;;;;;5014702;28;20453;-75
2022/12/03 00:58:37;;;;;;;23.17;17.33;;;;;;;;;;5014960;28;20088;-75
2022/12/03 01:01:03;;;;;;;20.60;15.88;;;;;;;;;;5014934;28;20407;-76
2022/12/03 01:03:29;;;;;;;21.20;15.10;;;;;;;;;;4996901;28;20708;-76
2022/12/03 01:05:55;;;;;;;25.98;19.85;;;;;;;;;;4995321;28;20470;-77
2022/12/03 01:08:21;;;;;;;35.90;27.27;;;;;;;;;;4994939;28;20034;-76
2022/12/03 01:10:47;;;;;;;53.25;40.67;;;;;;;;;;4995051;28;20027;-74
2022/12/03 01:13:14;;;;;;;55.83;42.83;;;;;;;;;;4994741;28;20037;-76
2022/12/03 01:15:40;;;;;;;55.70;42.75;;;;;;;;;;4995065;28;20030;-76
2022/12/03 01:18:06;;;;;;;63.35;42.72;;;;;;;;;;4995064;28;20022;-75
2022/12/03 01:20:32;;;;;;;58.72;42.92;;;;;;;;;;4994617;28;20034;-76
2022/12/03 01:22:58;;;;;;;61.25;42.90;;;;;;;;;;4995028;28;20085;-75
2022/12/03 01:25:24;;;;;;;57.22;44.45;;;;;;;;;;4994596;28;20101;-76
2022/12/03 01:27:50;;;;;;;56.83;42.35;;;;;;;;;;4994970;28;20089;-76
2022/12/03 01:30:16;;;;;;;58.97;44.10;;;;;;;;;;4994607;28;20026;-76
2022/12/03 01:32:42;;;;;;;54.63;41.58;;;;;;;;;;4994562;28;20030;-76
2022/12/03 01:35:09;;;;;;;61.03;45.55;;;;;;;;;;4994632;28;20062;-74
2022/12/03 01:37:35;;;;;;;62.03;46.25;;;;;;;;;;4994376;28;20031;-75
2022/12/03 01:40:01;;;;;;;63.35;44.70;;;;;;;;;;4994730;28;20026;-77
2022/12/03 01:42:29;;;;;;;58.35;40.33;;;;;;;;;;4994295;28;20470;-76
2022/12/03 01:44:58;;;;;;;54.40;39.65;;;;;;;;;;4994353;28;20026;-75
2022/12/03 01:47:28;;;;;;;50.88;38.90;;;;;;;;;;4994236;28;20025;-77
2022/12/03 01:50:12;;;;;;;46.53;37.70;;;;;;;;;;4994316;28;20470;-75
2022/12/03 01:52:39;;;;;;;47.80;37.58;;;;;;;;;;4994331;28;20130;-76
2022/12/03 01:55:07;;;;;;;44.92;35.22;;;;;;;;;;4994504;28;20049;-75
2022/12/03 01:57:36;;;;;;;50.30;36.58;;;;;;;;;;4994312;28;20041;-74
2022/12/03 02:00:03;;;;;;;46.90;35.22;;;;;;;;;;4994107;28;20038;-75
2022/12/03 02:02:29;;;;;;;52.38;37.60;;;;;;;;;;5003606;28;20053;-77
2022/12/03 02:04:56;;;;;;;47.22;37.28;;;;;;;;;;5013619;28;20034;-75
2022/12/03 02:07:25;;;;;;;48.75;38.53;;;;;;;;;;5013705;28;20022;-75
2022/12/03 02:09:51;;;;;;;52.70;39.38;;;;;;;;;;5013553;28;20022;-76
2022/12/03 02:12:19;;;;;;;47.63;36.22;;;;;;;;;;5013315;28;20065;-74
2022/12/03 02:14:45;;;;;;;48.33;37.00;;;;;;;;;;5013471;28;20077;-74
2022/12/03 02:17:12;;;;;;;49.65;38.17;;;;;;;;;;5013266;28;20474;-77
2022/12/03 02:19:38;;;;;;;47.78;33.78;;;;;;;;;;5013266;28;20389;-75
2022/12/03 02:22:23;;;;;;;42.42;33.60;;;;;;;;;;5013291;28;20088;-75
2022/12/03 02:24:55;;;;;;;40.53;30.63;;;;;;;;;;4995555;28;20036;-74
2022/12/03 02:27:21;;;;;;;35.97;27.92;;;;;;;;;;5013566;28;20493;-76
2022/12/03 02:29:48;;;;;;;36.20;25.98;;;;;;;;;;4995766;28;20026;-76
2022/12/03 02:32:14;;;;;;;30.42;24.60;;;;;;;;;;4995520;28;20033;-76
2022/12/03 02:34:42;;;;;;;30.58;23.70;;;;;;;;;;5013104;28;20033;-75
2022/12/03 02:37:15;;;;;;;26.65;21.85;;;;;;;;;;5012929;28;20057;-76
2022/12/03 02:39:44;;;;;;;27.05;20.85;;;;;;;;;;5012833;28;20496;-77
2022/12/03 02:44:56;;;;;;;27.23;21.58;;;;;;;;;;5012992;28;20041;-75
2022/12/03 02:47:22;;;;;;;24.38;21.67;;;;;;;;;;5012885;28;20078;-76
2022/12/03 02:49:48;;;;;;;25.17;21.00;;;;;;;;;;5012717;28;20033;-77
2022/12/03 02:52:14;;;;;;;22.23;19.05;;;;;;;;;;5012985;28;20033;-75
2022/12/03 02:54:41;;;;;;;27.00;20.85;;;;;;;;;;5012521;28;20030;-77
2022/12/03 02:57:07;;;;;;;26.45;20.88;;;;;;;;;;5012902;28;20033;-74
2022/12/03 02:59:33;;;;;;;28.45;22.65;;;;;;;;;;4995078;28;20113;-77
2022/12/03 03:02:00;;;;;;;27.52;20.23;;;;;;;;;;5007013;28;20466;-75
2022/12/03 03:04:26;;;;;;;23.83;19.88;;;;;;;;;;4993052;28;20018;-76
2022/12/03 03:06:52;;;;;;;25.50;21.33;;;;;;;;;;4992710;28;20081;-75
2022/12/03 03:09:19;;;;;;;25.88;20.13;;;;;;;;;;4992969;28;20022;-74
2022/12/03 03:11:45;;;;;;;28.30;21.60;;;;;;;;;;4992709;28;20029;-75
2022/12/03 03:14:11;;;;;;;26.55;21.48;;;;;;;;;;4993004;28;20030;-75
2022/12/03 03:16:38;;;;;;;28.27;22.02;;;;;;;;;;4992558;28;20470;-75
2022/12/03 03:19:04;;;;;;;29.90;22.77;;;;;;;;;;4992887;28;20054;-75
2022/12/03 03:21:30;;;;;;;28.83;23.25;;;;;;;;;;4992863;28;20037;-77
2022/12/03 03:23:56;;;;;;;23.88;19.50;;;;;;;;;;4992371;28;20102;-75
2022/12/03 03:26:22;;;;;;;26.77;19.20;;;;;;;;;;4992781;28;20027;-74
2022/12/03 03:28:49;;;;;;;24.27;18.75;;;;;;;;;;4992555;28;20050;-74
2022/12/03 03:31:17;;;;;;;25.50;19.58;;;;;;;;;;4992629;28;20101;-74
2022/12/03 03:33:44;;;;;;;21.05;17.40;;;;;;;;;;4992460;28;20478;-74
2022/12/03 03:36:10;;;;;;;20.65;16.98;;;;;;;;;;4992621;28;20113;-76
2022/12/03 03:38:37;;;;;;;22.40;18.50;;;;;;;;;;4992666;28;20037;-76
2022/12/03 03:41:04;;;;;;;22.77;19.15;;;;;;;;;;4992587;28;20073;-74
2022/12/03 03:43:33;;;;;;;22.73;17.48;;;;;;;;;;4992700;28;20550;-74
2022/12/03 03:46:00;;;;;;;25.33;18.92;;;;;;;;;;4974950;28;20027;-74
2022/12/03 03:48:26;;;;;;;23.23;19.45;;;;;;;;;;4992675;28;20094;-76
2022/12/03 03:50:52;;;;;;;26.48;21.13;;;;;;;;;;4992311;28;20048;-75
2022/12/03 03:53:19;;;;;;;24.20;18.85;;;;;;;;;;4992817;28;20085;-75
2022/12/03 03:55:45;;;;;;;24.35;18.85;;;;;;;;;;4996392;28;20026;-77
2022/12/03 03:58:12;;;;;;;25.25;19.65;;;;;;;;;;4996353;28;20474;-74
2022/12/03 04:00:38;;;;;;;24.98;19.33;;;;;;;;;;4996483;28;20038;-75
2022/12/03 04:03:04;;;;;;;22.50;18.90;;;;;;;;;;5010259;28;20120;-74
2022/12/03 04:05:30;;;;;;;22.42;18.35;;;;;;;;;;5016027;28;20065;-74
2022/12/03 04:07:58;;;;;;;25.20;19.42;;;;;;;;;;5015692;28;20057;-75
2022/12/03 04:13:08;;;;;;;20.73;18.23;;;;;;;;;;5016182;28;20072;-74
2022/12/03 04:15:34;;;;;;;23.40;19.08;;;;;;;;;;5015446;28;20018;-76
2022/12/03 04:20:50;;;;;;;24.35;17.77;;;;;;;;;;5005095;28;20022;-74
2022/12/03 04:23:16;;;;;;;20.33;16.50;;;;;;;;;;5015383;28;21950;-75
2022/12/03 04:36:41;;;;;;;18.42;14.77;;;;;;;;;;5015309;28;20489;-74
2022/12/03 04:39:08;;;;;;;16.10;13.05;;;;;;;;;;5015274;28;20028;-75
2022/12/03 04:41:34;;;;;;;16.85;12.80;;;;;;;;;;5015065;28;20382;-75
2022/12/03 04:46:47;;;;;;;14.95;12.80;;;;;;;;;;5015270;28;20029;-78
2022/12/03 04:49:15;;;;;;;17.33;13.57;;;;;;;;;;5014073;28;20149;-73
2022/12/03 04:51:41;;;;;;;18.70;14.00;;;;;;;;;;5014992;28;20393;-74
2022/12/03 04:54:07;;;;;;;16.98;13.38;;;;;;;;;;5033353;28;20029;-80
2022/12/03 04:56:33;;;;;;;16.25;13.43;;;;;;;;;;5021260;28;20499;-81
2022/12/03 04:58:59;;;;;;;17.67;13.95;;;;;;;;;;5028413;28;20030;-81
2022/12/03 05:01:25;;;;;;;16.63;13.27;;;;;;;;;;5027700;28;20033;-81
2022/12/03 05:03:51;;;;;;;15.55;13.23;;;;;;;;;;5015328;28;20425;-80
2022/12/03 05:06:18;;;;;;;15.50;13.55;;;;;;;;;;5015594;28;20075;-82
2022/12/03 05:08:44;;;;;;;15.38;12.65;;;;;;;;;;5015325;28;20044;-81
2022/12/03 05:11:10;;;;;;;17.95;13.73;;;;;;;;;;5015087;28;20018;-81
2022/12/03 05:13:36;;;;;;;33.38;22.13;;;;;;;;;;5015078;28;20029;-81
2022/12/03 05:16:02;;;;;;;19.98;15.50;;;;;;;;;;5024453;28;20103;-81
2022/12/03 05:18:33;;;;;;;36.80;29.35;;;;;;;;;;5034647;28;20036;-81
2022/12/03 05:21:03;;;;;;;40.38;30.48;;;;;;;;;;5034780;28;20040;-80
2022/12/03 05:23:31;;;;;;;24.75;18.50;;;;;;;;;;5032806;28;20503;-80
2022/12/03 05:25:58;;;;;;;29.48;21.77;;;;;;;;;;5016608;28;20041;-80
2022/12/03 05:28:24;;;;;;;28.92;22.05;;;;;;;;;;5034411;28;20040;-80
2022/12/03 05:30:50;;;;;;;56.20;40.38;;;;;;;;;;5034589;28;20033;-81
2022/12/03 05:33:16;;;;;;;61.03;43.20;;;;;;;;;;5015957;28;20108;-81
2022/12/03 05:35:43;;;;;;;37.60;26.58;;;;;;;;;;5014791;28;20029;-81
2022/12/03 05:38:09;;;;;;;40.15;25.63;;;;;;;;;;5014716;28;20072;-80
2022/12/03 05:40:38;;;;;;;26.98;18.52;;;;;;;;;;5015518;28;20401;-81
2022/12/03 05:43:04;;;;;;;20.55;15.70;;;;;;;;;;5014501;28;20030;-80
2022/12/03 05:45:31;;;;;;;13.70;11.80;;;;;;;;;;5032331;28;20541;-80
2022/12/03 05:47:58;;;;;;;14.40;11.38;;;;;;;;;;5034305;28;20026;-80
2022/12/03 05:50:26;;;;;;;15.20;11.57;;;;;;;;;;5033673;28;20021;-80
2022/12/03 05:52:55;;;;;;;17.05;12.35;;;;;;;;;;5032339;28;20080;-81
2022/12/03 05:55:24;;;;;;;12.20;10.32;;;;;;;;;;5033918;28;20537;-80
2022/12/03 05:57:51;;;;;;;14.07;10.82;;;;;;;;;;5034036;28;20032;-81
2022/12/03 06:00:19;;;;;;;12.30;10.43;;;;;;;;;;5033710;28;20028;-81
2022/12/03 06:02:45;;;;;;;14.98;12.07;;;;;;;;;;5015064;28;20516;-81
2022/12/03 06:05:12;;;;;;;60.60;43.03;;;;;;;;;;5013973;28;20028;-81
2022/12/03 06:07:38;;;;;;;72.32;50.20;;;;;;;;;;5015142;28;20102;-81
2022/12/03 06:10:05;;;;;;;39.53;30.80;;;;;;;;;;5013988;28;20018;-80
2022/12/03 06:12:31;;;;;;;63.40;45.75;;;;;;;;;;5013814;28;20077;-81
2022/12/03 06:14:58;;;;;;;119.55;84.70;;;;;;;;;;5014068;28;20029;-80
2022/12/03 06:17:25;;;;;;;37.70;28.08;;;;;;;;;;4997486;28;20033;-80
2022/12/03 06:19:51;;;;;;;31.02;19.10;;;;;;;;;;5033473;28;20032;-80
2022/12/03 06:22:17;;;;;;;22.33;16.75;;;;;;;;;;5033353;28;20029;-81
2022/12/03 06:24:43;;;;;;;18.48;12.63;;;;;;;;;;5029220;28;20527;-80
2022/12/03 06:27:10;;;;;;;16.55;12.77;;;;;;;;;;5024737;28;20021;-81
2022/12/03 06:29:36;;;;;;;16.50;12.68;;;;;;;;;;5003880;28;20036;-80
2022/12/03 06:32:03;;;;;;;19.67;13.60;;;;;;;;;;5013449;28;20024;-81
2022/12/03 06:34:29;;;;;;;18.67;13.38;;;;;;;;;;5013085;28;20450;-81
2022/12/03 06:36:55;;;;;;;18.83;13.18;;;;;;;;;;5016332;28;20021;-81
2022/12/03 06:39:21;;;;;;;20.38;13.40;;;;;;;;;;5031484;28;20026;-80
2022/12/03 06:41:47;;;;;;;16.30;12.88;;;;;;;;;;5006207;28;20492;-80
2022/12/03 06:44:13;;;;;;;17.75;12.98;;;;;;;;;;5013322;28;20030;-80
2022/12/03 06:46:40;;;;;;;16.20;12.93;;;;;;;;;;4995425;28;20018;-80
2022/12/03 06:49:08;;;;;;;19.45;14.23;;;;;;;;;;5013648;28;20064;-82
2022/12/03 06:51:34;;;;;;;16.70;13.65;;;;;;;;;;5032836;28;20024;-81
2022/12/03 06:54:01;;;;;;;18.00;13.07;;;;;;;;;;5032963;28;20036;-80
2022/12/03 06:56:27;;;;;;;16.25;12.38;;;;;;;;;;5032599;28;20079;-79
2022/12/03 06:58:53;;;;;;;15.48;11.35;;;;;;;;;;5032862;28;20025;-79
2022/12/03 07:01:19;;;;;;;28.90;21.77;;;;;;;;;;5014768;28;20045;-81
2022/12/03 07:03:46;;;;;;;27.55;21.27;;;;;;;;;;5012929;28;20104;-81
2022/12/03 07:06:21;;;;;;;165.32;120.30;;;;;;;;;;5013074;28;20029;-80
2022/12/03 07:08:57;;;;;;;36.08;25.42;;;;;;;;;;5014133;28;20026;-80
2022/12/03 07:14:09;;;;;;;31.90;20.25;;;;;;;;;;5012840;28;20040;-81
2022/12/03 07:16:42;;;;;;;16.85;12.50;;;;;;;;;;5024205;28;20063;-80
2022/12/03 07:19:12;;;;;;;15.48;12.27;;;;;;;;;;5032427;28;20026;-81
2022/12/03 07:21:44;;;;;;;15.77;11.73;;;;;;;;;;5032496;28;20124;-81
2022/12/03 07:24:11;;;;;;;14.05;10.68;;;;;;;;;;5032289;28;20025;-81
2022/12/03 07:26:43;;;;;;;14.20;10.80;;;;;;;;;;5014883;28;20028;-81
2022/12/03 07:29:09;;;;;;;14.52;10.63;;;;;;;;;;5012589;28;20022;-80
2022/12/03 07:31:35;;;;;;;14.25;10.48;;;;;;;;;;5012815;28;20048;-81
2022/12/03 07:34:04;;;;;;;13.50;9.93;;;;;;;;;;5012511;28;20029;-80
2022/12/03 07:36:45;;;;;;;13.23;10.70;;;;;;;;;;5014685;28;20052;-81
2022/12/03 07:39:14;;;;;;;13.65;10.98;;;;;;;;;;5032184;28;20060;-80
2022/12/03 07:41:40;;;;;;;16.30;11.88;;;;;;;;;;5032099;28;20025;-80
2022/12/03 07:44:09;;;;;;;19.88;13.25;;;;;;;;;;5032318;28;20101;-80
2022/12/03 07:46:35;;;;;;;17.58;13.88;;;;;;;;;;5016689;28;20473;-81
2022/12/03 07:49:02;;;;;;;37.28;25.88;;;;;;;;;;5012466;28;20109;-81
2022/12/03 07:51:31;;;;;;;38.95;29.10;;;;;;;;;;5012412;28;20105;-81
2022/12/03 07:53:57;;;;;;;35.55;26.05;;;;;;;;;;5015395;28;20033;-81
2022/12/03 07:56:23;;;;;;;31.38;21.10;;;;;;;;;;5028729;28;20443;-81
2022/12/03 07:58:49;;;;;;;21.15;15.45;;;;;;;;;;5031883;28;20087;-80
2022/12/03 08:01:16;;;;;;;15.65;12.63;;;;;;;;;;5016565;28;20026;-80
2022/12/03 08:03:42;;;;;;;16.45;12.75;;;;;;;;;;5011993;28;20046;-79
2022/12/03 08:06:08;;;;;;;22.13;17.27;;;;;;;;;;5012458;28;20026;-80
2022/12/03 08:08:34;;;;;;;14.65;12.55;;;;;;;;;;5011973;28;20045;-81
2022/12/03 08:11:04;;;;;;;17.05;13.23;;;;;;;;;;5012516;28;20018;-81
2022/12/03 08:13:33;;;;;;;20.63;15.82;;;;;;;;;;4999895;28;20039;-80
2022/12/03 08:16:00;;;;;;;18.30;14.10;;;;;;;;;;5031199;28;20030;-80
2022/12/03 08:18:27;;;;;;;15.02;13.20;;;;;;;;;;5032106;28;20038;-80
2022/12/03 08:20:53;;;;;;;15.13;12.50;;;;;;;;;;5031905;28;20115;-80
2022/12/03 08:23:21;;;;;;;18.65;14.65;;;;;;;;;;5030212;28;20064;-80
2022/12/03 08:25:47;;;;;;;18.70;14.23;;;;;;;;;;5030016;28;20468;-80
2022/12/03 08:28:21;;;;;;;17.98;12.45;;;;;;;;;;5032093;28;20036;-80
2022/12/03 08:30:56;;;;;;;21.77;15.43;;;;;;;;;;5031392;28;20100;-80
2022/12/03 08:33:35;;;;;;;22.27;16.27;;;;;;;;;;5031976;28;20026;-80
2022/12/03 08:36:19;;;;;;;16.55;12.65;;;;;;;;;;5012446;28;20052;-80
2022/12/03 08:38:47;;;;;;;19.57;15.80;;;;;;;;;;5031557;28;20028;-81
2022/12/03 08:41:15;;;;;;;17.70;13.82;;;;;;;;;;5034483;28;20289;-80
2022/12/03 08:43:42;;;;;;;17.42;13.73;;;;;;;;;;5035344;28;20369;-79
2022/12/03 08:46:17;;;;;;;15.45;12.27;;;;;;;;;;5031141;28;20025;-80
2022/12/03 08:48:51;;;;;;;15.80;12.27;;;;;;;;;;5024894;28;20076;-80
2022/12/03 08:51:23;;;;;;;39.95;25.85;;;;;;;;;;5028834;28;20030;-81
2022/12/03 08:56:53;;;;;;;17.98;13.85;;;;;;;;;;5029649;28;20040;-81
2022/12/03 08:59:19;;;;;;;19.33;15.02;;;;;;;;;;5034834;28;20116;-80
2022/12/03 09:01:46;;;;;;;18.52;14.68;;;;;;;;;;5035032;28;20053;-80
2022/12/03 09:04:31;;;;;;;30.83;21.20;;;;;;;;;;5034790;28;20547;-79
2022/12/03 09:06:57;;;;;;;31.23;23.05;;;;;;;;;;5018485;28;20130;-80
2022/12/03 09:09:23;;;;;;;16.52;14.10;;;;;;;;;;5014836;28;20033;-79
2022/12/03 09:11:50;;;;;;;16.88;13.85;;;;;;;;;;5015104;28;20022;-80
2022/12/03 09:14:22;;;;;;;13.57;11.35;;;;;;;;;;5014763;28;20032;-82
2022/12/03 09:16:54;;;;;;;14.55;10.90;;;;;;;;;;5015294;28;20025;-81
2022/12/03 09:19:24;;;;;;;14.93;11.77;;;;;;;;;;5014733;28;20030;-81
2022/12/03 09:21:51;;;;;;;14.77;11.60;;;;;;;;;;4997449;28;20025;-80
2022/12/03 09:24:17;;;;;;;14.82;12.57;;;;;;;;;;5014483;28;20030;-81
2022/12/03 09:26:43;;;;;;;15.40;13.10;;;;;;;;;;5013826;28;20077;-82
2022/12/03 09:29:09;;;;;;;17.45;12.65;;;;;;;;;;5015435;28;20065;-82
2022/12/03 09:31:35;;;;;;;14.80;11.98;;;;;;;;;;5007353;28;20026;-81
2022/12/03 09:34:02;;;;;;;14.30;12.05;;;;;;;;;;5034591;28;20056;-81
2022/12/03 09:36:28;;;;;;;15.75;12.85;;;;;;;;;;5028542;28;20033;-81
2022/12/03 09:38:54;;;;;;;16.73;12.25;;;;;;;;;;5003385;28;20038;-80
2022/12/03 09:41:20;;;;;;;16.63;12.70;;;;;;;;;;5014727;28;20433;-80
2022/12/03 09:43:47;;;;;;;17.42;13.75;;;;;;;;;;5014247;28;20029;-81
2022/12/03 09:46:13;;;;;;;23.45;16.95;;;;;;;;;;5024180;28;20022;-80
2022/12/03 09:48:39;;;;;;;19.98;15.40;;;;;;;;;;5012879;28;20375;-80
2022/12/03 09:51:07;;;;;;;18.95;14.57;;;;;;;;;;5009144;28;20101;-80
2022/12/03 09:53:33;;;;;;;53.00;37.25;;;;;;;;;;4996639;28;20386;-80
2022/12/03 09:56:00;;;;;;;19.92;15.45;;;;;;;;;;5014217;28;20033;-80
2022/12/03 09:58:26;;;;;;;16.60;13.60;;;;;;;;;;5014274;28;20076;-80
2022/12/03 10:00:53;;;;;;;23.52;17.58;;;;;;;;;;5021291;28;20497;-80
2022/12/03 10:03:21;;;;;;;46.00;31.95;;;;;;;;;;5014064;28;20273;-80
2022/12/03 10:05:47;;;;;;;39.88;29.60;;;;;;;;;;5014174;28;20057;-80
2022/12/03 10:08:17;;;;;;;18.90;14.88;;;;;;;;;;5013845;28;20436;-80
2022/12/03 10:10:43;;;;;;;15.10;12.73;;;;;;;;;;5017051;28;20026;-80
2022/12/03 10:13:12;;;;;;;15.57;13.27;;;;;;;;;;5031272;28;20096;-80
2022/12/03 10:15:38;;;;;;;16.98;13.43;;;;;;;;;;5013257;28;20038;-81
2022/12/03 10:18:17;;;;;;;17.15;13.15;;;;;;;;;;5013734;28;20806;-80
2022/12/03 10:20:43;;;;;;;18.38;13.40;;;;;;;;;;5014080;28;20021;-80
2022/12/03 10:23:18;;;;;;;15.82;12.75;;;;;;;;;;5013596;28;20114;-81
2022/12/03 10:25:44;;;;;;;;;;;;;;;;;;5032488;28;20064;-80
2022/12/03 10:28:10;;;;;;;16.30;13.38;;;;;;;;;;5033512;28;19908;-81
2022/12/03 10:30:36;;;;;;;17.33;12.48;;;;;;;;;;5027901;28;20033;-80
2022/12/03 10:33:12;;;;;;;15.30;12.25;;;;;;;;;;5013613;28;20500;-81
2022/12/03 10:35:41;;;;;;;15.95;13.57;;;;;;;;;;5013723;28;20076;-80
2022/12/03 10:38:18;;;;;;;17.63;14.70;;;;;;;;;;4995519;28;20026;-80
2022/12/03 10:40:44;;;;;;;17.60;13.52;;;;;;;;;;5013730;28;20097;-80
2022/12/03 10:43:29;;;;;;;23.05;18.35;;;;;;;;;;5008655;28;20034;-81
2022/12/03 10:46:01;;;;;;;20.02;15.50;;;;;;;;;;4993486;28;20045;-80
2022/12/03 10:48:27;;;;;;;22.40;16.27;;;;;;;;;;5008287;28;20087;-81
2022/12/03 10:50:55;;;;;;;19.58;14.63;;;;;;;;;;5013395;28;20105;-81
2022/12/03 10:53:22;;;;;;;14.77;12.50;;;;;;;;;;5028614;28;20100;-81
2022/12/03 10:55:50;;;;;;;18.40;14.50;;;;;;;;;;5013450;28;20026;-81
2022/12/03 10:58:23;;;;;;;17.55;14.00;;;;;;;;;;5013091;28;20485;-81
2022/12/03 11:00:51;;;;;;;41.78;29.90;;;;;;;;;;5013128;28;20041;-81
2022/12/03 11:03:22;;;;;;;105.18;74.00;;;;;;;;;;5013361;28;20053;-80
2022/12/03 11:05:49;;;;;;;19.73;15.73;;;;;;;;;;5028543;28;20392;-82
2022/12/03 11:08:20;;;;;;;23.58;19.67;;;;;;;;;;5032713;28;20025;-80
2022/12/03 11:10:55;;;;;;;22.75;18.30;;;;;;;;;;5032980;28;20025;-80
2022/12/03 11:13:33;;;;;;;17.45;13.82;;;;;;;;;;5026560;28;20021;-81
2022/12/03 11:16:00;;;;;;;18.08;14.05;;;;;;;;;;5032462;28;20029;-80
2022/12/03 11:18:45;;;;;;;20.58;16.70;;;;;;;;;;5026175;28;20022;-80
2022/12/03 11:21:12;;;;;;;20.63;15.10;;;;;;;;;;5012739;28;20097;-81
2022/12/03 11:23:44;;;;;;;19.70;15.52;;;;;;;;;;5012624;28;20022;-81
2022/12/03 11:26:18;;;;;;;17.52;15.05;;;;;;;;;;5012785;28;20032;-81
2022/12/03 11:28:47;;;;;;;18.70;14.07;;;;;;;;;;5012629;28;20430;-81
2022/12/03 11:31:32;;;;;;;18.08;14.13;;;;;;;;;;5018567;28;20065;-81
2022/12/03 11:33:58;;;;;;;;;;;;;;;;;;5027622;28;20072;-81
2022/12/03 11:36:24;;;;;;;19.13;14.73;;;;;;;;;;5018771;28;19914;-81
2022/12/03 11:38:51;;;;;;;17.67;14.93;;;;;;;;;;4995051;28;20033;-81
2022/12/03 11:41:17;;;;;;;19.40;15.50;;;;;;;;;;5013378;28;20085;-81
2022/12/03 11:43:55;;;;;;;17.83;15.43;;;;;;;;;;5025432;28;20025;-80
2022/12/03 11:46:21;;;;;;;22.45;17.23;;;;;;;;;;5032215;28;20060;-81
2022/12/03 11:48:48;;;;;;;28.60;21.88;;;;;;;;;;5032229;28;20381;-81
2022/12/03 11:51:16;;;;;;;20.05;16.63;;;;;;;;;;5032147;28;20077;-81
2022/12/03 11:53:43;;;;;;;21.70;17.60;;;;;;;;;;5027514;28;20260;-82
2022/12/03 11:56:17;;;;;;;18.77;16.20;;;;;;;;;;5012254;28;20081;-81
2022/12/03 11:58:44;;;;;;;19.55;15.00;;;;;;;;;;5012440;28;20041;-80
2022/12/03 12:01:10;;;;;;;18.63;15.68;;;;;;;;;;5012131;28;20026;-81
2022/12/03 12:03:41;;;;;;;19.13;15.57;;;;;;;;;;5012133;28;20050;-81
2022/12/03 12:06:11;;;;;;;20.17;17.42;;;;;;;;;;5012145;28;20146;-81
2022/12/03 12:08:39;;;;;;;25.75;20.00;;;;;;;;;;4994814;28;20034;-80
2022/12/03 12:11:17;;;;;;;30.58;22.52;;;;;;;;;;5012264;28;20026;-81
2022/12/03 12:13:43;;;;;;;36.45;27.52;;;;;;;;;;5011137;28;20060;-81
2022/12/03 12:16:10;;;;;;;31.25;23.52;;;;;;;;;;5014784;28;20101;-81
2022/12/03 12:18:36;;;;;;;25.05;18.52;;;;;;;;;;5016282;28;20539;-81
2022/12/03 12:21:20;;;;;;;20.02;16.30;;;;;;;;;;5015922;28;20061;-81
2022/12/03 12:23:46;;;;;;;22.33;18.30;;;;;;;;;;5015840;28;20072;-80
2022/12/03 12:26:12;;;;;;;29.48;24.60;;;;;;;;;;5016034;28;20033;-81
2022/12/03 12:28:38;;;;;;;59.60;43.05;;;;;;;;;;5015854;28;20025;-80
2022/12/03 12:31:10;;;;;;;31.33;25.52;;;;;;;;;;5015872;28;20397;-81
2022/12/03 12:33:36;;;;;;;36.63;29.45;;;;;;;;;;5015784;28;20030;-80
2022/12/03 12:36:07;;;;;;;32.53;27.85;;;;;;;;;;5015649;28;20389;-81
2022/12/03 12:38:33;;;;;;;28.92;21.52;;;;;;;;;;5015833;28;20025;-82
2022/12/03 12:41:02;;;;;;;23.65;20.35;;;;;;;;;;5015716;28;20030;-82
2022/12/03 12:43:31;;;;;;;24.52;19.42;;;;;;;;;;5015423;28;20030;-81
2022/12/03 12:46:00;;;;;;;25.98;21.30;;;;;;;;;;5015660;28;20385;-81
2022/12/03 12:48:28;;;;;;;28.83;22.67;;;;;;;;;;4997718;28;20021;-80
2022/12/03 12:50:58;;;;;;;18.67;14.32;;;;;;;;;;5015398;28;20033;-81
2022/12/03 12:53:43;;;;;;;21.48;16.85;;;;;;;;;;5015472;28;20381;-81
2022/12/03 12:56:29;;;;;;;26.38;18.70;;;;;;;;;;5015459;28;20093;-80
2022/12/03 12:58:56;;;;;;;23.23;18.98;;;;;;;;;;5016097;28;20469;-81
2022/12/03 13:01:27;;;;;;;23.80;16.75;;;;;;;;;;5014628;28;20491;-81
2022/12/03 13:03:54;;;;;;;16.95;13.70;;;;;;;;;;5015187;28;20108;-81
2022/12/03 13:06:28;;;;;;;18.17;14.82;;;;;;;;;;5015020;28;20026;-80
2022/12/03 13:08:54;;;;;;;14.77;11.48;;;;;;;;;;5014985;28;20033;-80
2022/12/03 13:11:23;;;;;;;19.30;14.63;;;;;;;;;;5015223;28;20041;-81
2022/12/03 13:13:49;;;;;;;19.42;15.23;;;;;;;;;;5015172;28;20117;-81
2022/12/03 13:16:15;;;;;;;20.40;15.18;;;;;;;;;;5014949;28;20061;-80
2022/12/03 13:18:44;;;;;;;17.92;15.30;;;;;;;;;;5014710;28;20045;-80
2022/12/03 13:21:16;;;;;;;22.75;16.88;;;;;;;;;;5014940;28;20474;-81
2022/12/03 13:23:42;;;;;;;26.08;16.58;;;;;;;;;;5014949;28;20026;-81
2022/12/03 13:26:20;;;;;;;29.33;20.45;;;;;;;;;;5014040;28;20524;-81
2022/12/03 13:28:46;;;;;;;22.85;18.30;;;;;;;;;;5014793;28;20084;-81
2022/12/03 13:31:17;;;;;;;22.60;18.17;;;;;;;;;;5014837;28;20103;-80
2022/12/03 13:33:43;;;;;;;21.00;16.95;;;;;;;;;;5014500;28;20509;-80
2022/12/03 13:36:14;;;;;;;20.77;15.30;;;;;;;;;;5014829;28;20084;-81
2022/12/03 13:38:41;;;;;;;17.55;13.85;;;;;;;;;;5015198;28;20543;-80
2022/12/03 13:42:37;;;;;;;18.30;13.25;;;;;;;;;;5033125;28;20037;-81
2022/12/03 13:43:54;;;;;;;16.95;13.45;;;;;;;;;;5033989;28;20030;-80
2022/12/03 13:46:20;;;;;;;14.30;11.50;;;;;;;;;;5034218;28;20499;-80
2022/12/03 13:48:49;;;;;;;15.18;11.77;;;;;;;;;;5034376;28;20025;-80
2022/12/03 13:51:29;;;;;;;16.02;12.90;;;;;;;;;;5034326;28;20046;-80
2022/12/03 13:53:57;;;;;;;16.95;12.98;;;;;;;;;;5034260;28;20031;-80
2022/12/03 13:56:39;;;;;;;18.52;12.30;;;;;;;;;;5033886;28;20040;-80
2022/12/03 13:59:13;;;;;;;18.85;15.70;;;;;;;;;;5033951;28;20387;-80
2022/12/03 14:01:39;;;;;;;15.75;12.95;;;;;;;;;;5033712;28;20018;-80
2022/12/03 14:04:17;;;;;;;18.67;15.07;;;;;;;;;;5033857;28;20057;-80
2022/12/03 14:06:43;;;;;;;16.83;14.40;;;;;;;;;;5033924;28;20022;-80
2022/12/03 14:09:12;;;;;;;18.80;14.73;;;;;;;;;;5033931;28;20022;-80
2022/12/03 14:14:23;;;;;;;;;;;;;;;;;;5034226;28;20036;-80
2022/12/03 14:16:49;;;;;;;16.63;12.95;;;;;;;;;;5033706;28;19999;-80
2022/12/03 14:19:15;;;;;;;17.08;13.02;;;;;;;;;;5033692;28;20025;-79
2022/12/03 14:21:41;;;;;;;15.82;13.00;;;;;;;;;;5033483;28;20030;-80
2022/12/03 14:24:07;;;;;;;18.35;13.20;;;;;;;;;;5033721;28;20439;-80
2022/12/03 14:26:33;;;;;;;15.98;13.48;;;;;;;;;;5033419;28;20022;-80
2022/12/03 14:28:59;;;;;;;14.55;12.65;;;;;;;;;;5033580;28;20072;-80
2022/12/03 14:31:26;;;;;;;18.33;14.13;;;;;;;;;;5033505;28;20067;-80
2022/12/03 14:33:52;;;;;;;24.88;18.15;;;;;;;;;;5033118;28;20101;-80
2022/12/03 14:36:18;;;;;;;40.22;26.20;;;;;;;;;;5033520;28;20113;-80
2022/12/03 14:38:44;;;;;;;34.58;22.98;;;;;;;;;;5014836;28;20025;-79
2022/12/03 14:42:11;;;;;;;35.25;23.98;;;;;;;;;;5033444;28;20102;-80
2022/12/03 14:43:56;;;;;;;36.03;24.00;;;;;;;;;;5033060;28;20072;-80
2022/12/03 14:46:22;;;;;;;44.00;30.42;;;;;;;;;;5033124;28;20354;-79
2022/12/03 14:48:48;;;;;;;54.35;37.35;;;;;;;;;;5033235;28;20030;-80
2022/12/03 14:51:14;;;;;;;65.22;42.55;;;;;;;;;;5033127;28;20026;-80
2022/12/03 14:53:40;;;;;;;61.60;41.97;;;;;;;;;;5032870;28;20025;-80